createdAt,value
2017-12-29T00:02:08.939Z,3.01
2017-12-29T00:04:36.385Z,3.04
2017-12-29T00:07:03.807Z,3.08
2017-12-29T00:09:31.241Z,3.06
2017-12-29T00:11:58.663Z,3.05
2017-12-29T00:14:26.109Z,3.08
2017-12-29T00:16:53.538Z,3.08
2017-12-29T00:19:20.972Z,3.09
2017-12-29T00:21:48.493Z,3.12
2017-12-29T00:24:16.004Z,3.14
2017-12-29T00:26:43.477Z,3.14
2017-12-29T00:29:10.921Z,3.12
2017-12-29T00:31:38.353Z,3.13
2017-12-29T00:34:05.836Z,3.14
2017-12-29T00:36:33.321Z,3.13
2017-12-29T00:39:00.777Z,3.12
2017-12-29T00:41:28.242Z,3.12
2017-12-29T00:43:55.664Z,3.13
2017-12-29T00:46:28.087Z,3.13
2017-12-29T00:48:55.555Z,3.08
2017-12-29T00:51:22.984Z,3.05
2017-12-29T00:53:50.411Z,3.05
2017-12-29T00:56:17.866Z,3.05
2017-12-29T00:58:45.283Z,3.05
2017-12-29T01:01:12.712Z,3.03
2017-12-29T01:03:40.143Z,3.03
2017-12-29T01:06:07.612Z,2.99
2017-12-29T01:08:35.049Z,3.00
2017-12-29T01:11:02.503Z,3.01
2017-12-29T01:13:29.926Z,3.02
2017-12-29T01:15:57.354Z,3.04
2017-12-29T01:18:24.787Z,3.05
2017-12-29T01:20:52.300Z,3.03
2017-12-29T01:23:19.743Z,3.02
2017-12-29T01:25:47.175Z,3.03
2017-12-29T01:28:14.637Z,3.03
2017-12-29T01:30:42.080Z,3.04
2017-12-29T01:33:09.516Z,3.05
2017-12-29T01:35:36.980Z,3.03
2017-12-29T01:38:04.409Z,3.04
2017-12-29T01:40:31.852Z,3.05
2017-12-29T01:42:59.297Z,3.05
2017-12-29T01:45:29.459Z,3.08
2017-12-29T01:47:57.841Z,3.08
2017-12-29T01:50:25.279Z,3.08
2017-12-29T01:52:52.719Z,3.09
2017-12-29T01:55:20.210Z,3.14
2017-12-29T01:57:47.720Z,3.14
2017-12-29T02:00:15.169Z,3.17
2017-12-29T02:02:42.640Z,3.18
2017-12-29T02:05:10.096Z,3.17
2017-12-29T02:07:37.549Z,3.16
2017-12-29T02:10:05.018Z,3.17
2017-12-29T02:12:32.435Z,3.15
2017-12-29T02:14:59.880Z,3.16
2017-12-29T02:17:27.331Z,3.14
2017-12-29T02:19:54.804Z,3.14
2017-12-29T02:22:22.259Z,3.15
2017-12-29T02:24:49.704Z,3.18
2017-12-29T02:27:17.146Z,3.12
2017-12-29T02:29:44.600Z,3.13
2017-12-29T02:32:12.013Z,3.10
2017-12-29T02:34:39.453Z,3.16
2017-12-29T02:37:06.852Z,3.11
2017-12-29T02:39:34.367Z,3.10
2017-12-29T02:42:01.804Z,3.12
2017-12-29T02:44:29.215Z,3.10
2017-12-29T02:46:56.862Z,3.09
2017-12-29T02:49:24.311Z,3.09
2017-12-29T02:51:51.753Z,3.11
2017-12-29T02:54:19.179Z,3.12
2017-12-29T02:56:46.628Z,3.06
2017-12-29T02:59:14.104Z,3.02
2017-12-29T03:01:41.521Z,3.04
2017-12-29T03:04:08.956Z,3.03
2017-12-29T03:06:36.388Z,3.00
2017-12-29T03:09:03.886Z,3.05
2017-12-29T03:11:31.300Z,3.04
2017-12-29T03:13:58.778Z,3.02
2017-12-29T03:16:27.032Z,3.03
2017-12-29T03:18:54.487Z,3.01
2017-12-29T03:21:21.913Z,3.00
2017-12-29T03:23:49.395Z,3.02
2017-12-29T03:26:16.869Z,3.00
2017-12-29T03:28:44.291Z,3.00
2017-12-29T03:31:11.719Z,3.05
2017-12-29T03:33:39.135Z,3.04
2017-12-29T03:36:06.566Z,3.05
2017-12-29T03:38:33.985Z,3.04
2017-12-29T03:41:01.452Z,3.03
2017-12-29T03:43:29.720Z,3.04
2017-12-29T03:45:57.154Z,3.05
2017-12-29T03:48:24.640Z,3.02
2017-12-29T03:50:52.084Z,3.04
2017-12-29T03:53:19.564Z,3.02
2017-12-29T03:55:47.860Z,3.01
2017-12-29T03:58:15.328Z,3.01
2017-12-29T04:00:42.763Z,2.96
2017-12-29T04:03:10.188Z,2.98
2017-12-29T04:05:37.625Z,2.99
2017-12-29T04:08:05.068Z,2.99
2017-12-29T04:10:32.550Z,3.01
2017-12-29T04:12:59.977Z,3.06
2017-12-29T04:15:27.432Z,3.07
2017-12-29T04:17:54.856Z,3.10
2017-12-29T04:20:22.281Z,3.11
2017-12-29T04:22:50.480Z,3.12
2017-12-29T04:25:18.696Z,3.12
2017-12-29T04:27:46.151Z,3.13
2017-12-29T04:30:14.515Z,3.14
2017-12-29T04:32:41.992Z,3.15
2017-12-29T04:35:10.133Z,3.13
2017-12-29T04:37:38.936Z,3.13
2017-12-29T04:40:06.415Z,3.09
2017-12-29T04:42:33.927Z,3.09
2017-12-29T04:45:01.384Z,3.07
2017-12-29T04:47:29.620Z,3.09
2017-12-29T04:49:58.480Z,3.10
2017-12-29T04:52:25.973Z,3.09
2017-12-29T04:54:53.476Z,3.08
2017-12-29T04:57:20.953Z,3.09
2017-12-29T04:59:48.461Z,3.10
2017-12-29T05:02:16.787Z,3.08
2017-12-29T05:04:44.868Z,3.07
2017-12-29T05:07:13.285Z,3.11
2017-12-29T05:09:40.752Z,3.08
2017-12-29T05:12:08.214Z,3.08
2017-12-29T05:14:35.717Z,3.07
2017-12-29T05:17:03.207Z,3.07
2017-12-29T05:19:30.663Z,3.07
2017-12-29T05:21:58.145Z,3.08
2017-12-29T05:24:26.410Z,3.08
2017-12-29T05:26:53.867Z,3.07
2017-12-29T05:29:21.361Z,3.07
2017-12-29T05:31:48.917Z,3.10
2017-12-29T05:34:16.381Z,3.10
2017-12-29T05:36:43.899Z,3.11
2017-12-29T05:39:12.502Z,3.14
2017-12-29T05:41:39.974Z,3.18
2017-12-29T05:44:07.544Z,3.15
2017-12-29T05:46:35.030Z,3.14
2017-12-29T05:49:02.485Z,3.12
2017-12-29T05:51:29.950Z,3.15
2017-12-29T05:53:57.451Z,3.11
2017-12-29T05:56:24.937Z,3.12
2017-12-29T05:58:52.424Z,3.13
2017-12-29T06:01:19.938Z,3.13
2017-12-29T06:03:48.129Z,3.09
2017-12-29T06:06:18.015Z,3.11
2017-12-29T06:08:45.493Z,3.08
2017-12-29T06:11:12.957Z,3.07
2017-12-29T06:13:40.440Z,3.06
2017-12-29T06:16:07.916Z,3.09
2017-12-29T06:18:36.413Z,3.08
2017-12-29T06:21:03.929Z,3.10
2017-12-29T06:23:31.403Z,3.09
2017-12-29T06:25:58.940Z,3.09
2017-12-29T06:28:26.421Z,3.08
2017-12-29T06:30:53.952Z,3.08
2017-12-29T06:33:21.420Z,3.11
2017-12-29T06:35:50.384Z,3.10
2017-12-29T06:38:18.972Z,3.09
2017-12-29T06:40:47.149Z,3.09
2017-12-29T06:43:14.668Z,3.09
2017-12-29T06:45:42.148Z,3.08
2017-12-29T06:48:09.834Z,3.08
2017-12-29T06:50:37.315Z,3.08
2017-12-29T06:53:05.891Z,3.04
2017-12-29T06:55:33.394Z,2.99
2017-12-29T06:58:02.828Z,2.98
2017-12-29T07:00:30.323Z,2.97
2017-12-29T07:03:01.548Z,2.97
2017-12-29T07:05:29.094Z,2.92
2017-12-29T07:07:56.616Z,2.89
2017-12-29T07:10:24.121Z,2.87
2017-12-29T07:12:51.610Z,2.85
2017-12-29T07:15:19.165Z,2.82
2017-12-29T07:17:47.728Z,2.78
2017-12-29T07:20:15.205Z,2.76
2017-12-29T07:22:42.682Z,2.72
2017-12-29T07:25:11.317Z,2.71
2017-12-29T07:27:38.796Z,2.67
2017-12-29T07:30:06.317Z,2.66
2017-12-29T07:32:33.805Z,2.63
2017-12-29T07:35:01.305Z,2.62
2017-12-29T07:37:28.864Z,2.61
2017-12-29T07:39:56.349Z,2.61
2017-12-29T07:42:23.874Z,2.60
2017-12-29T07:44:52.068Z,2.61
2017-12-29T07:47:21.661Z,2.61
2017-12-29T07:49:49.133Z,2.57
2017-12-29T07:52:16.612Z,2.54
2017-12-29T07:54:44.184Z,2.51
2017-12-29T07:57:11.596Z,2.49
2017-12-29T07:59:39.077Z,2.49
2017-12-29T08:02:06.620Z,2.51
2017-12-29T08:04:34.092Z,2.54
2017-12-29T08:07:01.529Z,2.54
2017-12-29T08:09:28.978Z,2.57
2017-12-29T08:11:56.460Z,2.58
2017-12-29T08:14:24.001Z,2.62
2017-12-29T08:16:51.462Z,2.65
2017-12-29T08:19:18.949Z,2.67
2017-12-29T08:21:46.387Z,2.72
2017-12-29T08:24:13.827Z,2.77
2017-12-29T08:26:41.359Z,2.82
2017-12-29T08:29:08.791Z,2.84
2017-12-29T08:31:36.332Z,2.84
2017-12-29T08:34:03.843Z,2.84
2017-12-29T08:36:31.348Z,2.86
2017-12-29T08:38:58.865Z,2.92
2017-12-29T08:41:26.328Z,2.93
2017-12-29T08:43:53.821Z,2.96
2017-12-29T08:46:21.259Z,2.98
2017-12-29T08:48:48.713Z,3.01
2017-12-29T08:51:16.156Z,3.02
2017-12-29T08:53:43.621Z,3.05
2017-12-29T08:56:11.064Z,3.12
2017-12-29T08:58:38.562Z,3.15
2017-12-29T09:01:06.009Z,3.20
2017-12-29T09:03:33.471Z,3.24
2017-12-29T09:06:00.968Z,3.30
2017-12-29T09:08:28.429Z,3.33
2017-12-29T09:10:55.876Z,3.37
2017-12-29T09:13:23.351Z,3.36
2017-12-29T09:15:51.334Z,3.37
2017-12-29T09:18:18.799Z,3.39
2017-12-29T09:20:46.318Z,3.45
2017-12-29T09:23:13.817Z,3.44
2017-12-29T09:25:41.262Z,3.48
2017-12-29T09:28:08.730Z,3.53
2017-12-29T09:30:36.173Z,3.54
2017-12-29T09:33:03.618Z,3.54
2017-12-29T09:35:31.086Z,3.54
2017-12-29T09:37:58.548Z,3.59
2017-12-29T09:40:25.964Z,3.60
2017-12-29T09:42:53.456Z,3.64
2017-12-29T09:45:20.893Z,3.66
2017-12-29T09:47:48.321Z,3.67
2017-12-29T09:50:15.791Z,3.68
2017-12-29T09:52:43.317Z,3.72
2017-12-29T09:55:10.757Z,3.76
2017-12-29T09:57:38.204Z,3.78
2017-12-29T10:00:05.679Z,3.80
2017-12-29T10:02:33.125Z,3.84
2017-12-29T10:05:00.627Z,3.89
2017-12-29T10:07:28.173Z,3.97
2017-12-29T10:09:55.628Z,4.02
2017-12-29T10:12:23.083Z,4.13
2017-12-29T10:14:51.338Z,4.18
2017-12-29T10:17:18.815Z,4.24
2017-12-29T10:19:46.256Z,4.27
2017-12-29T10:22:13.777Z,4.31
2017-12-29T10:24:41.203Z,4.31
2017-12-29T10:27:08.719Z,4.35
2017-12-29T10:29:36.321Z,4.35
2017-12-29T10:32:03.772Z,4.39
2017-12-29T10:34:31.228Z,4.45
2017-12-29T10:36:58.652Z,4.43
2017-12-29T10:39:26.116Z,4.46
2017-12-29T10:41:53.524Z,4.44
2017-12-29T10:44:20.965Z,4.43
2017-12-29T10:46:48.445Z,4.52
2017-12-29T10:49:15.866Z,4.53
2017-12-29T10:51:43.300Z,4.55
2017-12-29T10:54:10.731Z,4.59
2017-12-29T10:56:38.171Z,4.62
2017-12-29T10:59:05.603Z,4.68
2017-12-29T11:01:33.091Z,4.74
2017-12-29T11:04:00.588Z,4.76
2017-12-29T11:06:28.045Z,4.77
2017-12-29T11:08:55.514Z,4.78
2017-12-29T11:11:22.998Z,4.76
2017-12-29T11:13:50.434Z,4.78
2017-12-29T11:16:17.870Z,4.78
2017-12-29T11:18:45.312Z,4.80
2017-12-29T11:21:12.761Z,4.84
2017-12-29T11:23:40.347Z,4.88
2017-12-29T11:26:07.777Z,4.91
2017-12-29T11:28:35.269Z,4.92
2017-12-29T11:31:02.714Z,4.90
2017-12-29T11:33:30.118Z,4.83
2017-12-29T11:35:57.557Z,4.85
2017-12-29T11:38:25.056Z,4.87
2017-12-29T11:40:52.487Z,4.88
2017-12-29T11:43:19.934Z,4.90
2017-12-29T11:45:47.455Z,4.92
2017-12-29T11:48:14.881Z,4.87
2017-12-29T11:50:42.385Z,4.82
2017-12-29T11:53:09.846Z,4.79
2017-12-29T11:55:37.258Z,4.75
2017-12-29T11:58:04.764Z,4.75
2017-12-29T12:00:32.187Z,4.76
2017-12-29T12:02:59.636Z,4.87
2017-12-29T12:05:27.144Z,4.98
2017-12-29T12:07:54.693Z,5.08
2017-12-29T12:10:22.130Z,5.18
2017-12-29T12:12:50.845Z,5.33
2017-12-29T12:15:18.347Z,5.31
2017-12-29T12:17:45.861Z,5.36
2017-12-29T12:20:13.350Z,5.20
2017-12-29T12:22:40.843Z,5.13
2017-12-29T12:25:08.310Z,5.13
2017-12-29T12:27:35.755Z,5.07
2017-12-29T12:30:03.224Z,5.08
2017-12-29T12:32:30.742Z,5.06
2017-12-29T12:34:58.189Z,5.07
2017-12-29T12:37:25.632Z,5.08
2017-12-29T12:39:53.060Z,5.21
2017-12-29T12:42:20.512Z,5.44
2017-12-29T12:44:47.975Z,5.66
2017-12-29T12:47:15.440Z,5.78
2017-12-29T12:49:42.903Z,5.84
2017-12-29T12:52:10.336Z,5.80
2017-12-29T12:54:37.805Z,5.78
2017-12-29T12:57:05.234Z,5.70
2017-12-29T12:59:32.675Z,5.66
2017-12-29T13:02:00.112Z,5.69
2017-12-29T13:04:27.554Z,5.69
2017-12-29T13:06:55.060Z,5.72
2017-12-29T13:09:22.559Z,5.76
2017-12-29T13:11:49.999Z,5.74
2017-12-29T13:14:17.450Z,5.72
2017-12-29T13:16:45.784Z,5.66
2017-12-29T13:19:13.246Z,5.59
2017-12-29T13:21:40.707Z,5.51
2017-12-29T13:24:08.144Z,5.39
2017-12-29T13:26:35.616Z,5.32
2017-12-29T13:29:03.097Z,5.27
2017-12-29T13:31:30.523Z,5.21
2017-12-29T13:33:57.964Z,5.15
2017-12-29T13:36:25.394Z,5.16
2017-12-29T13:38:52.842Z,5.10
2017-12-29T13:41:20.310Z,5.06
2017-12-29T13:43:47.824Z,5.05
2017-12-29T13:46:15.279Z,5.02
2017-12-29T13:48:42.746Z,4.97
2017-12-29T13:51:10.218Z,5.00
2017-12-29T13:53:37.654Z,4.95
2017-12-29T13:56:05.209Z,5.00
2017-12-29T13:58:32.641Z,4.95
2017-12-29T14:01:00.120Z,4.94
2017-12-29T14:03:27.550Z,4.96
2017-12-29T14:05:55.019Z,4.92
2017-12-29T14:08:22.518Z,4.88
2017-12-29T14:10:49.995Z,4.89
2017-12-29T14:13:17.445Z,4.89
2017-12-29T14:15:44.863Z,4.86
2017-12-29T14:18:12.370Z,4.86
2017-12-29T14:20:40.903Z,4.83
2017-12-29T14:23:08.342Z,4.81
2017-12-29T14:25:35.806Z,4.78
2017-12-29T14:28:03.245Z,4.73
2017-12-29T14:30:30.744Z,4.70
2017-12-29T14:32:58.345Z,4.67
2017-12-29T14:35:30.724Z,4.68
2017-12-29T14:37:58.171Z,4.64
2017-12-29T14:40:25.594Z,4.64
2017-12-29T14:42:53.040Z,4.63
2017-12-29T14:45:20.495Z,4.61
2017-12-29T14:47:48.003Z,4.57
2017-12-29T14:50:15.452Z,4.58
2017-12-29T14:52:42.871Z,4.54
2017-12-29T14:55:10.404Z,4.48
2017-12-29T14:57:37.827Z,4.43
2017-12-29T15:00:05.294Z,4.38
2017-12-29T15:02:32.709Z,4.36
2017-12-29T15:05:02.344Z,4.35
2017-12-29T15:07:29.785Z,4.28
2017-12-29T15:09:59.955Z,4.25
2017-12-29T15:12:27.443Z,4.23
2017-12-29T15:14:55.013Z,4.21
2017-12-29T15:17:22.547Z,4.17
2017-12-29T15:19:50.082Z,4.12
2017-12-29T15:22:17.603Z,4.05
2017-12-29T15:24:45.177Z,4.07
2017-12-29T15:27:12.615Z,4.03
2017-12-29T15:29:40.893Z,4.00
2017-12-29T15:32:08.441Z,3.97
2017-12-29T15:34:36.565Z,3.92
2017-12-29T15:37:04.224Z,3.93
2017-12-29T15:39:31.662Z,3.92
2017-12-29T15:41:59.138Z,3.90
2017-12-29T15:44:26.586Z,3.90
2017-12-29T15:46:54.021Z,3.86
2017-12-29T15:49:21.485Z,3.83
2017-12-29T15:51:48.945Z,3.83
2017-12-29T15:54:16.424Z,3.81
2017-12-29T15:56:43.872Z,3.81
2017-12-29T15:59:11.306Z,3.83
2017-12-29T16:01:46.386Z,3.80
2017-12-29T16:04:13.842Z,3.80
2017-12-29T16:06:41.337Z,3.77
2017-12-29T16:09:08.776Z,3.71
2017-12-29T16:11:36.261Z,3.67
2017-12-29T16:14:03.721Z,3.68
2017-12-29T16:16:31.189Z,3.66
2017-12-29T16:18:58.662Z,3.67
2017-12-29T16:21:26.111Z,3.64
2017-12-29T16:23:53.596Z,3.63
2017-12-29T16:26:21.013Z,3.59
2017-12-29T16:28:48.470Z,3.57
2017-12-29T16:31:15.926Z,3.61
2017-12-29T16:33:43.390Z,3.58
2017-12-29T16:36:10.846Z,3.60
2017-12-29T16:38:38.273Z,3.59
2017-12-29T16:41:05.772Z,3.60
2017-12-29T16:43:33.258Z,3.57
2017-12-29T16:46:00.761Z,3.59
2017-12-29T16:48:28.245Z,3.59
2017-12-29T16:50:55.672Z,3.62
2017-12-29T16:53:23.149Z,3.64
2017-12-29T16:55:50.656Z,3.64
2017-12-29T16:58:18.125Z,3.64
2017-12-29T17:00:45.645Z,3.62
2017-12-29T17:03:13.160Z,3.60
2017-12-29T17:05:40.604Z,3.62
2017-12-29T17:08:08.050Z,3.57
2017-12-29T17:10:35.569Z,3.52
2017-12-29T17:13:03.044Z,3.49
2017-12-29T17:15:30.496Z,3.48
2017-12-29T17:17:57.969Z,3.49
2017-12-29T17:20:25.438Z,3.51
2017-12-29T17:22:52.879Z,3.54
2017-12-29T17:25:20.417Z,3.52
2017-12-29T17:27:47.848Z,3.54
2017-12-29T17:30:15.355Z,3.55
2017-12-29T17:32:42.801Z,3.57
2017-12-29T17:35:10.301Z,3.59
2017-12-29T17:37:37.749Z,3.56
2017-12-29T17:40:05.243Z,3.53
2017-12-29T17:42:32.695Z,3.55
2017-12-29T17:45:00.186Z,3.56
2017-12-29T17:47:27.625Z,3.55
2017-12-29T17:49:55.056Z,3.55
2017-12-29T17:52:22.472Z,3.54
2017-12-29T17:54:49.912Z,3.55
2017-12-29T17:57:17.360Z,3.56
2017-12-29T17:59:44.814Z,3.52
2017-12-29T18:02:12.322Z,3.54
2017-12-29T18:04:39.810Z,3.55
2017-12-29T18:07:07.243Z,3.56
2017-12-29T18:09:35.001Z,3.58
2017-12-29T18:12:02.459Z,3.58
2017-12-29T18:14:29.936Z,3.55
2017-12-29T18:16:57.382Z,3.53
2017-12-29T18:19:24.878Z,3.50
2017-12-29T18:21:52.348Z,3.47
2017-12-29T18:24:19.849Z,3.47
2017-12-29T18:26:47.386Z,3.49
2017-12-29T18:29:14.860Z,3.44
2017-12-29T18:31:42.348Z,3.45
2017-12-29T18:34:09.836Z,3.42
2017-12-29T18:36:37.276Z,3.39
2017-12-29T18:39:04.742Z,3.40
2017-12-29T18:41:32.197Z,3.39
2017-12-29T18:43:59.630Z,3.36
2017-12-29T18:46:27.114Z,3.36
2017-12-29T18:48:54.577Z,3.38
2017-12-29T18:51:22.040Z,3.37
2017-12-29T18:53:49.471Z,3.37
2017-12-29T18:56:16.913Z,3.35
2017-12-29T18:58:44.401Z,3.37
2017-12-29T19:01:11.867Z,3.39
2017-12-29T19:03:39.289Z,3.38
2017-12-29T19:06:06.732Z,3.38
2017-12-29T19:08:34.166Z,3.39
2017-12-29T19:11:01.612Z,3.41
2017-12-29T19:13:29.149Z,3.44
2017-12-29T19:15:56.572Z,3.43
2017-12-29T19:18:24.056Z,3.45
2017-12-29T19:20:51.524Z,3.39
2017-12-29T19:23:18.951Z,3.37
2017-12-29T19:25:46.378Z,3.37
2017-12-29T19:28:13.896Z,3.36
2017-12-29T19:30:41.377Z,3.30
2017-12-29T19:33:08.870Z,3.32
2017-12-29T19:35:36.313Z,3.34
2017-12-29T19:38:03.769Z,3.32
2017-12-29T19:40:31.221Z,3.30
2017-12-29T19:42:58.765Z,3.29
2017-12-29T19:45:26.210Z,3.28
2017-12-29T19:47:53.678Z,3.29
2017-12-29T19:50:21.144Z,3.26
2017-12-29T19:52:48.620Z,3.27
2017-12-29T19:55:16.164Z,3.27
2017-12-29T19:57:43.707Z,3.31
2017-12-29T20:00:11.240Z,3.29
2017-12-29T20:02:38.697Z,3.29
2017-12-29T20:05:06.285Z,3.25
2017-12-29T20:07:34.094Z,3.24
2017-12-29T20:10:01.588Z,3.23
2017-12-29T20:12:29.029Z,3.25
2017-12-29T20:14:56.477Z,3.25
2017-12-29T20:17:23.960Z,3.24
2017-12-29T20:19:51.456Z,3.27
2017-12-29T20:22:18.911Z,3.25
2017-12-29T20:24:46.388Z,3.22
2017-12-29T20:27:13.877Z,3.19
2017-12-29T20:29:41.310Z,3.23
2017-12-29T20:32:08.770Z,3.15
2017-12-29T20:34:36.208Z,3.06
2017-12-29T20:37:03.677Z,3.03
2017-12-29T20:39:31.191Z,3.05
2017-12-29T20:41:59.264Z,3.06
2017-12-29T20:44:26.749Z,3.07
2017-12-29T20:46:54.216Z,3.05
2017-12-29T20:49:21.695Z,3.07
2017-12-29T20:51:49.141Z,3.07
2017-12-29T20:54:16.616Z,3.10
2017-12-29T20:56:44.082Z,3.11
2017-12-29T20:59:11.526Z,3.08
2017-12-29T21:01:38.984Z,3.10
2017-12-29T21:04:06.442Z,3.08
2017-12-29T21:06:33.918Z,3.10
2017-12-29T21:09:01.364Z,3.12
2017-12-29T21:11:28.835Z,3.08
2017-12-29T21:13:56.329Z,3.10
2017-12-29T21:16:33.791Z,3.12
2017-12-29T21:19:01.235Z,3.13
2017-12-29T21:21:28.695Z,3.12
2017-12-29T21:23:56.166Z,3.11
2017-12-29T21:26:23.620Z,3.14
2017-12-29T21:28:51.207Z,3.14
2017-12-29T21:31:18.690Z,3.17
2017-12-29T21:33:46.152Z,3.18
2017-12-29T21:36:13.575Z,3.18
2017-12-29T21:38:41.368Z,3.21
2017-12-29T21:41:08.806Z,3.24
2017-12-29T21:43:36.275Z,3.22
2017-12-29T21:46:03.722Z,3.19
2017-12-29T21:48:31.203Z,3.26
2017-12-29T21:50:58.655Z,3.29
2017-12-29T21:53:26.131Z,3.28
2017-12-29T21:55:53.560Z,3.23
2017-12-29T21:58:20.975Z,3.27
2017-12-29T22:00:48.493Z,3.26
2017-12-29T22:03:15.940Z,3.30
2017-12-29T22:05:43.499Z,3.32
2017-12-29T22:08:10.954Z,3.32
2017-12-29T22:10:38.414Z,3.28
2017-12-29T22:13:05.852Z,3.28
2017-12-29T22:15:33.920Z,3.31
2017-12-29T22:18:01.438Z,3.25
2017-12-29T22:20:28.905Z,3.25
2017-12-29T22:22:56.362Z,3.26
2017-12-29T22:25:23.820Z,3.23
2017-12-29T22:27:52.265Z,3.25
2017-12-29T22:30:19.691Z,3.27
2017-12-29T22:32:47.132Z,3.26
2017-12-29T22:35:16.150Z,3.23
2017-12-29T22:37:43.772Z,3.18
2017-12-29T22:40:11.206Z,3.21
2017-12-29T22:42:38.638Z,3.23
2017-12-29T22:45:11.052Z,3.20
2017-12-29T22:47:38.520Z,3.23
2017-12-29T22:50:05.967Z,3.24
2017-12-29T22:52:33.408Z,3.24
2017-12-29T22:55:00.842Z,3.25
2017-12-29T22:57:28.328Z,3.25
2017-12-29T22:59:55.771Z,3.25
2017-12-29T23:02:23.256Z,3.27
2017-12-29T23:04:50.728Z,3.30
2017-12-29T23:07:18.159Z,3.30
2017-12-29T23:09:45.639Z,3.28
2017-12-29T23:12:13.088Z,3.27
2017-12-29T23:14:40.542Z,3.27
2017-12-29T23:17:07.976Z,3.24
2017-12-29T23:19:35.476Z,3.24
2017-12-29T23:22:02.880Z,3.25
2017-12-29T23:24:30.423Z,3.18
2017-12-29T23:26:57.963Z,3.15
2017-12-29T23:29:25.405Z,3.13
2017-12-29T23:31:52.869Z,3.10
2017-12-29T23:34:20.317Z,3.12
2017-12-29T23:36:47.751Z,3.10
2017-12-29T23:39:15.201Z,3.08
2017-12-29T23:41:42.629Z,3.08
2017-12-29T23:44:10.110Z,3.10
2017-12-29T23:46:37.512Z,3.06
2017-12-29T23:49:04.951Z,3.04
2017-12-29T23:51:32.405Z,3.02
2017-12-29T23:53:59.838Z,3.01
2017-12-29T23:56:27.263Z,3.01
2017-12-29T23:58:54.680Z,3.01
